sensor_id;sensor_type;location;lat;lon;timestamp;pressure;altitude;pressure_sealevel;temperature;humidity
76331;BME280;65148;51.912;15.570;2022-12-10T00:06:41;100679.09;;;1.59;93.05
76331;BME280;65148;51.912;15.570;2022-12-10T00:21:42;100678.30;;;1.70;93.22
76331;BME280;65148;51.912;15.570;2022-12-10T00:36:46;100687.37;;;1.57;94.29
76331;BME280;65148;51.912;15.570;2022-12-10T00:52:02;100681.29;;;1.50;93.91
76331;BME280;65148;51.912;15.570;2022-12-10T01:07:04;100686.51;;;1.45;93.42
76331;BME280;65148;51.912;15.570;2022-12-10T01:22:05;100682.73;;;1.04;94.91
76331;BME280;65148;51.912;15.570;2022-12-10T01:37:06;100674.84;;;0.91;95.42
76331;BME280;65148;51.912;15.570;2022-12-10T01:52:30;100666.30;;;0.64;95.57
76331;BME280;65148;51.912;15.570;2022-12-10T02:07:43;100661.30;;;0.68;95.63
76331;BME280;65148;51.912;15.570;2022-12-10T02:22:57;100651.54;;;0.55;95.93
76331;BME280;65148;51.912;15.570;2022-12-10T02:38:23;100659.14;;;0.40;96.69
76331;BME280;65148;51.912;15.570;2022-12-10T02:53:28;100666.86;;;0.30;97.20
76331;BME280;65148;51.912;15.570;2022-12-10T03:08:37;100674.48;;;0.51;97.33
76331;BME280;65148;51.912;15.570;2022-12-10T03:23:57;100675.34;;;0.45;97.99
76331;BME280;65148;51.912;15.570;2022-12-10T03:38:58;100670.76;;;0.52;97.82
76331;BME280;65148;51.912;15.570;2022-12-10T03:54:00;100683.55;;;0.68;98.10
76331;BME280;65148;51.912;15.570;2022-12-10T04:09:02;100677.30;;;0.93;97.41
76331;BME280;65148;51.912;15.570;2022-12-10T04:24:28;100693.88;;;1.01;96.92
76331;BME280;65148;51.912;15.570;2022-12-10T04:39:41;100701.67;;;1.21;97.00
76331;BME280;65148;51.912;15.570;2022-12-10T04:54:43;100693.09;;;1.31;96.62
76331;BME280;65148;51.912;15.570;2022-12-10T05:10:09;100692.27;;;1.30;96.41
76331;BME280;65148;51.912;15.570;2022-12-10T05:25:10;100705.73;;;1.42;95.87
76331;BME280;65148;51.912;15.570;2022-12-10T05:40:12;100719.91;;;1.31;96.04
76331;BME280;65148;51.912;15.570;2022-12-10T05:55:13;100735.55;;;1.34;95.70
76331;BME280;65148;51.912;15.570;2022-12-10T06:10:38;100724.42;;;1.19;96.31
76331;BME280;65148;51.912;15.570;2022-12-10T06:25:40;100729.02;;;1.30;95.84
76331;BME280;65148;51.912;15.570;2022-12-10T06:40:41;100736.15;;;1.36;95.13
76331;BME280;65148;51.912;15.570;2022-12-10T06:55:42;100751.74;;;1.27;95.46
76331;BME280;65148;51.912;15.570;2022-12-10T07:11:11;100755.01;;;1.29;95.68
76331;BME280;65148;51.912;15.570;2022-12-10T07:26:12;100757.54;;;1.24;95.08
76331;BME280;65148;51.912;15.570;2022-12-10T07:41:14;100759.62;;;1.22;95.48
76331;BME280;65148;51.912;15.570;2022-12-10T07:56:15;100770.13;;;1.24;95.36
76331;BME280;65148;51.912;15.570;2022-12-10T08:11:37;100771.77;;;1.25;95.21
76331;BME280;65148;51.912;15.570;2022-12-10T08:26:38;100783.16;;;1.20;95.06
76331;BME280;65148;51.912;15.570;2022-12-10T08:41:39;100795.90;;;1.25;95.23
76331;BME280;65148;51.912;15.570;2022-12-10T08:56:40;100801.05;;;1.26;94.56
76331;BME280;65148;51.912;15.570;2022-12-10T09:12:05;100798.03;;;0.98;94.25
76331;BME280;65148;51.912;15.570;2022-12-10T09:27:06;100795.91;;;1.06;94.87
76331;BME280;65148;51.912;15.570;2022-12-10T10:12:45;100792.76;;;1.46;92.53
76331;BME280;65148;51.912;15.570;2022-12-10T10:27:47;100802.38;;;1.35;93.74
76331;BME280;65148;51.912;15.570;2022-12-10T10:42:52;100803.93;;;1.43;93.53
76331;BME280;65148;51.912;15.570;2022-12-10T10:57:54;100796.10;;;1.41;93.53
76331;BME280;65148;51.912;15.570;2022-12-10T11:13:22;100787.85;;;1.25;92.93
76331;BME280;65148;51.912;15.570;2022-12-10T11:43:47;100775.40;;;1.30;95.16
76331;BME280;65148;51.912;15.570;2022-12-10T12:14:26;100779.15;;;1.29;94.94
76331;BME280;65148;51.912;15.570;2022-12-10T12:29:41;100776.06;;;1.44;94.33
76331;BME280;65148;51.912;15.570;2022-12-10T12:45:03;100768.18;;;1.31;93.59
76331;BME280;65148;51.912;15.570;2022-12-10T13:00:13;100772.97;;;1.29;94.94
76331;BME280;65148;51.912;15.570;2022-12-10T13:31:35;100785.15;;;0.88;93.98
76331;BME280;65148;51.912;15.570;2022-12-10T14:01:16;100794.38;;;0.74;95.28
76331;BME280;65148;51.912;15.570;2022-12-10T14:16:33;100822.03;;;0.68;95.44
76331;BME280;65148;51.912;15.570;2022-12-10T14:31:44;100822.81;;;0.75;93.78
76331;BME280;65148;51.912;15.570;2022-12-10T14:46:49;100811.42;;;0.55;95.14
76331;BME280;65148;51.912;15.570;2022-12-10T15:01:54;100829.70;;;0.64;94.96
76331;BME280;65148;51.912;15.570;2022-12-10T15:17:31;100841.28;;;0.58;94.41
76331;BME280;65148;51.912;15.570;2022-12-10T15:32:26;100858.98;;;0.59;93.12
76331;BME280;65148;51.912;15.570;2022-12-10T15:47:27;100870.35;;;0.55;93.83
76331;BME280;65148;51.912;15.570;2022-12-10T16:02:58;100862.25;;;0.36;93.27
76331;BME280;65148;51.912;15.570;2022-12-10T16:18:00;100873.79;;;0.37;93.86
76331;BME280;65148;51.912;15.570;2022-12-10T16:33:02;100874.39;;;0.39;94.29
76331;BME280;65148;51.912;15.570;2022-12-10T16:48:04;100874.52;;;0.51;94.06
76331;BME280;65148;51.912;15.570;2022-12-10T17:03:25;100877.47;;;0.43;92.73
76331;BME280;65148;51.912;15.570;2022-12-10T17:18:32;100873.36;;;0.40;93.44
76331;BME280;65148;51.912;15.570;2022-12-10T17:33:34;100893.54;;;0.43;93.67
76331;BME280;65148;51.912;15.570;2022-12-10T17:48:36;100884.89;;;0.41;92.47
76331;BME280;65148;51.912;15.570;2022-12-10T18:03:54;100872.21;;;0.23;93.90
76331;BME280;65148;51.912;15.570;2022-12-10T18:18:56;100877.33;;;0.31;93.85
76331;BME280;65148;51.912;15.570;2022-12-10T18:34:04;100889.23;;;0.35;93.29
76331;BME280;65148;51.912;15.570;2022-12-10T18:49:06;100893.20;;;0.26;93.01
76331;BME280;65148;51.912;15.570;2022-12-10T19:04:23;100895.38;;;0.11;93.87
76331;BME280;65148;51.912;15.570;2022-12-10T19:19:24;100896.61;;;0.08;94.61
76331;BME280;65148;51.912;15.570;2022-12-10T19:34:25;100892.70;;;0.11;93.85
76331;BME280;65148;51.912;15.570;2022-12-10T19:49:28;100900.74;;;0.04;93.42
76331;BME280;65148;51.912;15.570;2022-12-10T20:04:52;100905.27;;;0.04;93.73
76331;BME280;65148;51.912;15.570;2022-12-10T20:19:54;100901.20;;;-0.06;94.41
76331;BME280;65148;51.912;15.570;2022-12-10T20:34:56;100914.58;;;-0.06;94.21
76331;BME280;65148;51.912;15.570;2022-12-10T20:49:57;100917.88;;;-0.10;93.68
76331;BME280;65148;51.912;15.570;2022-12-10T21:05:20;100902.11;;;-0.31;94.08
76331;BME280;65148;51.912;15.570;2022-12-10T21:20:24;100899.02;;;-0.22;94.25
76331;BME280;65148;51.912;15.570;2022-12-10T21:35:26;100902.89;;;-0.11;93.84
76331;BME280;65148;51.912;15.570;2022-12-10T21:50:28;100905.40;;;-0.29;94.05
76331;BME280;65148;51.912;15.570;2022-12-10T22:05:49;100900.05;;;-0.29;93.58
76331;BME280;65148;51.912;15.570;2022-12-10T22:20:56;100896.30;;;-0.15;93.11
76331;BME280;65148;51.912;15.570;2022-12-10T22:35:58;100904.95;;;-0.13;92.77
76331;BME280;65148;51.912;15.570;2022-12-10T22:51:00;100896.76;;;-0.31;92.01
76331;BME280;65148;51.912;15.570;2022-12-10T23:06:19;100891.92;;;-0.54;92.97
76331;BME280;65148;51.912;15.570;2022-12-10T23:21:26;100888.19;;;-0.47;93.04
76331;BME280;65148;51.912;15.570;2022-12-10T23:36:28;100886.10;;;-0.38;92.34
76331;BME280;65148;51.912;15.570;2022-12-10T23:51:29;100868.40;;;-0.32;91.72
